Data for 10/28/2018

Time Sea-Level Adjusted Pressure Absolute Pressure Temperature Relative Humidity Dew Point   
(mb) (inHg) (mb) (inHg) (C) (F) (%) (C) (F)
00:05 1021 30.15 850 25.1 3.5 38.4 60 -3.6 25.6
00:10 1021 30.15 850 25.1 3.7 38.6 59 -3.7 25.4
00:15 1021 30.15 850 25.1 3.8 38.8 58 -3.6 25.5
00:20 1021 30.15 850 25.1 3.8 38.9 57 -3.8 25.1
00:25 1021 30.15 850 25.1 3.9 39 58 -3.6 25.4
00:30 1021 30.15 850 25.1 3.7 38.6 60 -3.4 25.9
00:35 1021 30.15 850 25.1 3.5 38.3 60 -3.5 25.7
00:40 1021 30.15 850 25.1 3.6 38.4 59 -3.8 25.2
00:45 1020 30.12 850 25.1 3.6 38.5 59 -3.6 25.5
00:50 1020 30.12 850 25.1 3.7 38.6 59 -3.6 25.5
00:55 1020 30.12 850 25.1 3.6 38.4 59 -3.7 25.3
01:00 1020 30.12 849 25.07 3.6 38.5 59 -3.7 25.3
01:05 1020 30.12 849 25.07 3.8 38.8 57 -4 24.8
01:10 1020 30.12 849 25.07 4.1 39.4 57 -3.7 25.3
01:15 1020 30.12 849 25.07 4.2 39.5 56 -3.9 25.1
01:20 1020 30.12 849 25.07 4.2 39.5 56 -3.8 25.2
01:25 1020 30.12 849 25.07 4.4 39.9 55 -3.9 25
01:30 1020 30.12 849 25.07 4.6 40.3 56 -3.5 25.8
01:35 1020 30.12 849 25.07 4.7 40.5 56 -3.3 26.1
01:40 1020 30.12 849 25.07 5 40.9 54 -3.5 25.8
01:45 1020 30.12 849 25.07 5.1 41.2 55 -3.2 26.3
01:50 1020 30.12 849 25.07 5 41.1 56 -3 26.7
01:55 1020 30.12 849 25.07 5 41 57 -2.8 26.9
02:00 1020 30.12 849 25.07 4.6 40.3 59 -2.7 27.2
02:05 1020 30.12 849 25.07 4.4 39.9 60 -2.7 27.1
02:10 1020 30.12 849 25.07 4.4 40 61 -2.5 27.5
02:15 1020 30.12 849 25.07 4.5 40.1 61 -2.3 27.9
02:20 1020 30.12 849 25.07 4.4 39.8 62 -2.3 27.8
02:25 1020 30.12 849 25.07 4.4 39.9 63 -2.1 28.2
02:30 1020 30.12 849 25.07 4.2 39.6 63 -2.1 28.2
02:35 1020 30.12 849 25.07 4 39.2 64 -2.1 28.3
02:40 1020 30.12 849 25.07 4.1 39.4 64 -2 28.4
02:45 1020 30.12 849 25.07 4.2 39.6 64 -1.9 28.6
02:50 1020 30.12 849 25.07 4.3 39.8 64 -1.9 28.7
02:55 1019 30.09 849 25.07 4.3 39.8 64 -1.9 28.7
03:00 1019 30.09 848 25.04 4.7 40.4 63 -1.9 28.6
03:05 1019 30.09 848 25.04 4.7 40.5 62 -1.9 28.6
03:10 1019 30.09 848 25.04 4.8 40.6 63 -1.6 29.1
03:15 1019 30.09 849 25.07 4.7 40.4 63 -1.7 29
03:20 1019 30.09 848 25.04 4.6 40.3 65 -1.5 29.3
03:25 1019 30.09 848 25.04 4.6 40.3 64 -1.5 29.2
03:30 1019 30.09 848 25.04 4.6 40.3 65 -1.4 29.4
03:35 1019 30.09 848 25.04 4.6 40.3 65 -1.4 29.4
03:40 1019 30.09 848 25.04 4.5 40 65 -1.5 29.3
03:45 1019 30.09 848 25.04 4.3 39.7 65 -1.7 28.9
03:50 1019 30.09 848 25.04 4 39.2 66 -1.9 28.6
03:55 1019 30.09 848 25.04 3.8 38.8 67 -1.8 28.8
04:00 1019 30.09 848 25.04 3.8 38.8 66 -1.9 28.6
04:05 1019 30.09 848 25.04 3.9 39 66 -1.9 28.6
04:10 1019 30.09 848 25.04 3.9 39.1 67 -1.7 29
04:15 1019 30.09 849 25.07 4.3 39.8 65 -1.7 29
04:20 1019 30.09 849 25.07 4.1 39.4 67 -1.5 29.3
04:25 1019 30.09 849 25.07 3.5 38.2 70 -1.5 29.3
04:30 1019 30.09 848 25.04 3.2 37.8 72 -1.4 29.5
04:35 1019 30.09 848 25.04 3.2 37.7 72 -1.4 29.5
04:40 1019 30.09 848 25.04 3.1 37.6 73 -1.3 29.6
04:45 1019 30.09 848 25.04 3.1 37.7 72 -1.4 29.5
04:50 1019 30.09 848 25.04 3.1 37.5 72 -1.5 29.3
04:55 1019 30.09 848 25.04 3.3 38 72 -1.3 29.6
05:00 1019 30.09 848 25.04 3.6 38.4 72 -1 30.2
05:05 1019 30.09 848 25.04 3.9 39.1 70 -1 30.2
05:10 1019 30.09 848 25.04 4.2 39.5 70 -0.8 30.5
05:15 1019 30.09 848 25.04 4.2 39.6 71 -0.6 30.8
05:20 1019 30.09 848 25.04 4.3 39.7 70 -0.7 30.8
05:25 1019 30.09 848 25.04 4.4 39.9 70 -0.6 30.8
05:30 1019 30.09 848 25.04 4.5 40.2 69 -0.6 30.9
05:35 1019 30.09 848 25.04 4.5 40.2 69 -0.6 31
05:40 1019 30.09 848 25.04 4.5 40.2 69 -0.6 30.8
05:45 1019 30.09 848 25.04 4.6 40.3 70 -0.4 31.3
05:50 1018 30.06 848 25.04 4.6 40.2 70 -0.3 31.4
05:55 1018 30.06 848 25.04 4.7 40.5 70 -0.2 31.6
06:00 1018 30.06 848 25.04 4.7 40.4 70 -0.2 31.6
06:05 1018 30.06 847 25.01 4.8 40.6 70 -0.2 31.7
06:10 1018 30.06 847 25.01 4.8 40.7 70 -0.2 31.6
06:15 1018 30.06 847 25.01 4.9 40.7 69 -0.4 31.3
06:20 1018 30.06 847 25.01 5.2 41.4 68 -0.3 31.5
06:25 1018 30.06 847 25.01 5.6 42.2 67 0 32
06:30 1018 30.06 847 25.01 5.8 42.4 66 0 32
06:35 1018 30.06 847 25.01 5.7 42.3 66 -0 31.9
06:40 1018 30.06 847 25.01 5.7 42.2 67 0.1 32.1
06:45 1018 30.06 847 25.01 5.8 42.5 67 0.1 32.2
06:50 1018 30.06 847 25.01 5.9 42.7 67 0.2 32.4
06:55 1018 30.06 847 25.01 6.1 42.9 66 0.2 32.3
07:00 1018 30.06 847 25.01 6.2 43.1 66 0.2 32.4
07:05 1018 30.06 847 25.01 6.2 43.1 66 0.3 32.5
07:10 1018 30.06 847 25.01 6.3 43.3 65 0.3 32.5
07:15 1018 30.06 847 25.01 6.4 43.5 65 0.2 32.4
07:20 1018 30.06 847 25.01 6.4 43.6 65 0.3 32.6
07:25 1018 30.06 847 25.01 6.5 43.6 65 0.3 32.5
07:30 1018 30.06 847 25.01 6.7 44 63 0.2 32.4
07:35 1017 30.03 847 25.01 6.8 44.3 63 0.3 32.5
07:40 1017 30.03 847 25.01 7 44.6 64 0.6 33.1
07:45 1017 30.03 847 25.01 6.8 44.2 64 0.5 33
07:50 1017 30.03 847 25.01 7 44.5 64 0.6 33
07:55 1018 30.06 847 25.01 7 44.6 63 0.6 33
08:00 1018 30.06 847 25.01 7 44.6 63 0.5 32.9
08:05 1017 30.03 847 25.01 7.4 45.2 61 0.4 32.8
08:10 1017 30.03 847 25.01 7.7 45.9 60 0.5 33
08:15 1017 30.03 847 25.01 8.2 46.7 57 0.3 32.5
08:20 1017 30.03 847 25.01 8.5 47.3 60 1.1 34
08:25 1017 30.03 847 25.01 8.3 46.9 60 1 33.8
08:30 1017 30.03 846 24.98 7.8 46 61 0.8 33.4
08:35 1017 30.03 846 24.98 7.4 45.3 63 0.9 33.7
08:40 1017 30.03 846 24.98 7.1 44.8 64 0.8 33.5
08:45 1017 30.03 846 24.98 7.2 44.9 64 0.8 33.5
08:50 1017 30.03 846 24.98 7.3 45.1 64 0.8 33.5
08:55 1017 30.03 846 24.98 7.3 45.2 64 1 33.8
09:00 1017 30.03 846 24.98 7.4 45.2 64 1.1 33.9
09:05 1017 30.03 846 24.98 7.3 45.1 65 1.1 33.9
09:10 1017 30.03 846 24.98 7.4 45.3 64 1.1 33.9
09:15 1017 30.03 846 24.98 7.5 45.5 62 0.7 33.2
09:20 1017 30.03 846 24.98 7.3 45.1 64 0.9 33.7
09:25 1017 30.03 846 24.98 6.9 44.5 65 0.8 33.5
09:30 1017 30.03 846 24.98 7 44.6 63 0.4 32.8
09:35 1017 30.03 846 24.98 7.2 45 63 0.6 33.1
09:40 1017 30.03 846 24.98 7.5 45.4 61 0.4 32.7
09:45 1017 30.03 846 24.98 7.7 45.9 60 0.5 32.9
09:50 1017 30.03 846 24.98 8 46.4 58 0.4 32.7
09:55 1017 30.03 846 24.98 8.3 46.9 58 0.4 32.8
10:00 1017 30.03 846 24.98 8.4 47.1 58 0.6 33
10:05 1017 30.03 846 24.98 8.6 47.4 55 0.2 32.3
10:10 1017 30.03 846 24.98 9 48.2 54 0.2 32.4
10:15 1017 30.03 846 24.98 9.3 48.7 54 0.5 32.8
10:20 1017 30.03 846 24.98 9.7 49.5 53 0.7 33.3
10:25 1017 30.03 846 24.98 10.2 50.3 52 0.8 33.4
10:30 1017 30.03 846 24.98 10.6 51.1 51 0.8 33.5
10:35 1017 30.03 846 24.98 11.2 52.2 50 1.2 34.1
10:40 1017 30.03 846 24.98 11.4 52.5 50 1.3 34.4
10:45 1017 30.03 846 24.98 11.5 52.8 51 1.9 35.4
10:50 1017 30.03 846 24.98 11.7 53 49 1.4 34.6
10:55 1016 30 846 24.98 11.6 52.9 48 1.1 33.9
11:00 1016 30 846 24.98 11.8 53.2 48 1.1 33.9
11:05 1016 30 846 24.98 11.8 53.2 48 1.1 34
11:10 1016 30 846 24.98 12.5 54.4 44 0.7 33.3
11:15 1016 30 846 24.98 13.4 56.2 42 0.7 33.2
11:20 1016 30 846 24.98 14 57.2 41 1 33.8
11:25 1016 30 846 24.98 13.3 55.9 44 1.4 34.5
11:30 1016 30 845 24.95 12.9 55.3 44 1.2 34.1
11:35 1016 30 845 24.95 12.9 55.3 46 1.6 34.9
11:40 1016 30 845 24.95 13.2 55.7 45 1.5 34.7
11:45 1016 30 845 24.95 13.4 56.2 44 1.5 34.8
11:50 1016 30 845 24.95 13.5 56.2 44 1.6 34.9
11:55 1016 30 845 24.95 13.5 56.2 45 1.9 35.4
12:00 1016 30 845 24.95 13.7 56.7 44 1.7 35.1
12:05 1016 30 845 24.95 13.9 57.1 44 2 35.7
12:10 1016 30 845 24.95 14.1 57.4 43 1.9 35.5
12:15 1016 30 845 24.95 14.2 57.6 44 2.1 35.8
12:20 1016 30 845 24.95 14.2 57.5 43 2 35.6
12:25 1016 30 845 24.95 14.5 58 43 2 35.7
12:30 1016 30 845 24.95 14.6 58.3 42 2.1 35.8
12:35 1016 30 845 24.95 14.5 58.2 44 2.4 36.3
12:40 1016 30 845 24.95 14.3 57.8 43 1.9 35.5
12:45 1016 30 845 24.95 14.4 58 43 2 35.7
12:50 1015 29.97 845 24.95 14.6 58.3 42 1.9 35.5
12:55 1015 29.97 844 24.92 14.7 58.4 42 2 35.6
13:00 1015 29.97 844 24.92 14.9 58.7 41 2 35.6
13:05 1015 29.97 844 24.92 15.1 59.1 41 2.1 35.7
13:10 1015 29.97 844 24.92 15.2 59.4 40 1.8 35.3
13:15 1015 29.97 844 24.92 15.7 60.2 39 1.8 35.3
13:20 1015 29.97 844 24.92 16 60.8 38 1.8 35.2
13:25 1015 29.97 844 24.92 16.4 61.5 36 1.5 34.6
13:30 1015 29.97 844 24.92 17.1 62.7 33 0.8 33.5
13:35 1015 29.97 844 24.92 17.4 63.2 32 0.5 32.9
13:40 1015 29.97 844 24.92 17.7 63.9 32 0.7 33.3
13:45 1015 29.97 844 24.92 17.9 64.1 32 0.9 33.6
13:50 1015 29.97 844 24.92 17.9 64.2 33 1.4 34.5
13:55 1015 29.97 844 24.92 17.7 63.9 33 1.5 34.7
14:00 1014 29.94 844 24.92 17.6 63.7 33 1.4 34.5
14:05 1014 29.94 844 24.92 17.7 63.8 33 1.3 34.3
14:10 1014 29.94 844 24.92 17.7 63.9 33 1.3 34.4
14:15 1014 29.94 844 24.92 17.6 63.6 34 1.8 35.2
14:20 1014 29.94 844 24.92 17.4 63.2 34 1.4 34.6
14:25 1015 29.97 844 24.92 16.9 62.4 35 1.3 34.4
14:30 1015 29.97 844 24.92 16.4 61.5 38 2.2 36
14:35 1015 29.97 844 24.92 15.5 59.8 43 2.9 37.3
14:40 1015 29.97 844 24.92 14.8 58.6 44 2.8 37.1
14:45 1015 29.97 844 24.92 14.4 57.9 46 3 37.4
14:50 1015 29.97 844 24.92 14 57.3 48 3.2 37.8
14:55 1015 29.97 844 24.92 13.6 56.5 51 3.7 38.6
15:00 1015 29.97 844 24.92 13 55.5 54 4.1 39.4
15:05 1015 29.97 844 24.92 12.9 55.2 53 3.7 38.6
15:10 1016 30 845 24.95 13.3 56 50 3.1 37.5
15:15 1016 30 845 24.95 13.4 56.1 54 4.3 39.7
15:20 1016 30 845 24.95 12.5 54.4 65 6.1 43.1
15:25 1016 30 845 24.95 11 51.8 74 6.5 43.8
15:30 1016 30 845 24.95 10.2 50.3 77 6.3 43.3
15:35 1015 29.97 845 24.95 10 49.9 76 6 42.9
15:40 1015 29.97 844 24.92 10 50.1 77 6.2 43.2
15:45 1015 29.97 844 24.92 9.9 49.9 78 6.3 43.3
15:50 1015 29.97 845 24.95 9.6 49.3 80 6.4 43.5
15:55 1015 29.97 844 24.92 9.5 49.1 79 6.1 43
16:00 1015 29.97 844 24.92 9.5 49.1 79 6 42.8
16:05 1015 29.97 844 24.92 9.5 49.1 78 5.8 42.5
16:10 1015 29.97 844 24.92 9.6 49.2 77 5.8 42.4
16:15 1015 29.97 844 24.92 9.6 49.3 77 5.8 42.4
16:20 1015 29.97 844 24.92 9.7 49.4 76 5.7 42.3
16:25 1015 29.97 844 24.92 9.8 49.6 76 5.8 42.4
16:30 1015 29.97 844 24.92 9.8 49.6 76 5.7 42.3
16:35 1015 29.97 844 24.92 9.8 49.7 76 5.8 42.4
16:40 1015 29.97 844 24.92 9.9 49.8 76 5.9 42.5
16:45 1015 29.97 844 24.92 9.8 49.6 76 5.8 42.5
16:50 1015 29.97 844 24.92 9.7 49.5 75 5.5 41.9
16:55 1015 29.97 844 24.92 9.8 49.6 74 5.3 41.6
17:00 1015 29.97 844 24.92 9.9 49.8 73 5.2 41.3
17:05 1015 29.97 844 24.92 10 49.9 73 5.3 41.5
17:10 1015 29.97 844 24.92 10 50 71 5.1 41.1
17:15 1014 29.94 844 24.92 10 50 72 5.1 41.3
17:20 1014 29.94 844 24.92 9.9 49.8 72 5 41
17:25 1014 29.94 844 24.92 9.9 49.8 71 5 41
17:30 1014 29.94 843 24.89 9.9 49.8 72 5.1 41.1
17:35 1014 29.94 843 24.89 9.8 49.6 72 5.1 41.2
17:40 1014 29.94 843 24.89 9.7 49.5 73 5.1 41.1
17:45 1014 29.94 843 24.89 9.7 49.4 73 5 41
17:50 1014 29.94 843 24.89 9.6 49.4 73 5.1 41.2
17:55 1014 29.94 843 24.89 9.7 49.4 73 5.1 41.2
18:00 1014 29.94 843 24.89 9.8 49.6 72 4.9 40.8
18:05 1014 29.94 843 24.89 9.8 49.6 74 5.5 41.9
18:10 1014 29.94 843 24.89 9.4 48.9 76 5.4 41.7
18:15 1014 29.94 844 24.92 9.5 49 74 5.1 41.2
18:20 1015 29.97 844 24.92 9.7 49.5 70 4.6 40.2
18:25 1014 29.94 843 24.89 10.8 51.5 56 2.4 36.3
18:30 1014 29.94 843 24.89 11.9 53.5 54 2.8 37.1
18:35 1014 29.94 843 24.89 11.9 53.4 51 2.2 36
18:40 1014 29.94 843 24.89 12.2 54 50 2.1 35.8
18:45 1014 29.94 843 24.89 12.3 54.1 52 2.7 36.8
18:50 1014 29.94 843 24.89 12 53.5 54 3.1 37.6
18:55 1014 29.94 843 24.89 11.6 52.8 54 2.7 36.9
19:00 1013 29.91 843 24.89 11.5 52.8 56 3.1 37.6
19:05 1014 29.94 843 24.89 11.1 52.1 57 3.1 37.5
19:10 1014 29.94 843 24.89 11 51.8 58 3.1 37.6
19:15 1014 29.94 843 24.89 11.1 52 62 4.1 39.4
19:20 1014 29.94 843 24.89 10.8 51.4 57 2.6 36.6
19:25 1013 29.91 842 24.86 12.3 54.1 46 1.1 34.1
19:30 1013 29.91 842 24.86 12.9 55.2 46 1.6 34.8
19:35 1014 29.94 843 24.89 12.7 54.9 51 2.9 37.2
19:40 1014 29.94 843 24.89 12.1 53.8 44 0.4 32.7
19:45 1013 29.91 843 24.89 12.6 54.6 40 -0.6 30.9
19:50 1013 29.91 842 24.86 12.8 55 42 0.3 32.6
19:55 1013 29.91 843 24.89 12.6 54.7 45 1.1 33.9
20:00 1014 29.94 843 24.89 12.1 53.9 53 2.9 37.2
20:05 1014 29.94 843 24.89 10.9 51.6 64 4.4 39.9
20:10 1014 29.94 843 24.89 9.6 49.2 68 4 39.1
20:15 1014 29.94 844 24.92 8.8 47.9 70 3.7 38.7
20:20 1014 29.94 844 24.92 8.5 47.3 72 3.9 38.9
20:25 1015 29.97 844 24.92 8.5 47.3 73 4.1 39.3
20:30 1015 29.97 844 24.92 8.5 47.4 73 4.1 39.3
20:35 1015 29.97 844 24.92 8.5 47.3 74 4.1 39.5
20:40 1015 29.97 844 24.92 8 46.4 76 4 39.2
20:45 1015 29.97 844 24.92 7.4 45.4 75 3.2 37.8
20:50 1015 29.97 844 24.92 7.3 45.1 75 3.2 37.7
20:55 1015 29.97 844 24.92 7.1 44.8 76 3.2 37.7
21:00 1015 29.97 844 24.92 6.9 44.4 77 3.1 37.5
21:05 1015 29.97 844 24.92 6.8 44.2 76 2.9 37.2
21:10 1015 29.97 845 24.95 6.8 44.2 74 2.6 36.6
21:15 1015 29.97 845 24.95 6.8 44.2 75 2.6 36.7
21:20 1016 30 845 24.95 6.5 43.8 75 2.4 36.4
21:25 1016 30 845 24.95 6.6 43.9 73 2.1 35.8
21:30 1016 30 845 24.95 6.8 44.2 73 2.3 36.1
21:35 1016 30 845 24.95 6.9 44.4 73 2.4 36.4
21:40 1016 30 845 24.95 6.8 44.2 73 2.3 36.1
21:45 1016 30 845 24.95 6.8 44.2 72 2.1 35.8
21:50 1016 30 845 24.95 6.9 44.4 71 1.9 35.5
21:55 1016 30 845 24.95 7 44.6 71 2 35.6
22:00 1016 30 845 24.95 7 44.6 71 2 35.6
22:05 1016 30 845 24.95 6.8 44.2 72 2 35.7
22:10 1016 30 845 24.95 6.6 43.9 72 1.8 35.3
22:15 1016 30 845 24.95 6.5 43.6 73 1.9 35.5
22:20 1016 30 845 24.95 6.3 43.3 73 1.8 35.2
22:25 1016 30 845 24.95 6.2 43.1 72 1.5 34.8
22:30 1016 30 845 24.95 6.3 43.3 71 1.4 34.6
22:35 1016 30 845 24.95 6.2 43.2 72 1.6 34.9
22:40 1016 30 845 24.95 6.1 43 72 1.4 34.5
22:45 1016 30 845 24.95 6.2 43.1 72 1.5 34.6
22:50 1016 30 845 24.95 6.1 43.1 72 1.4 34.6
22:55 1016 30 845 24.95 6.1 43.1 72 1.4 34.6
23:00 1016 30 845 24.95 6.2 43.2 72 1.5 34.8
23:05 1016 30 845 24.95 6.3 43.3 72 1.5 34.8
23:10 1016 30 845 24.95 6.3 43.4 72 1.7 35
23:15 1016 30 845 24.95 6.2 43.2 74 1.9 35.5
23:20 1016 30 845 24.95 6.1 43 75 1.9 35.5
23:25 1016 30 845 24.95 6.1 42.9 75 2 35.6
23:30 1016 30 845 24.95 6 42.8 75 1.9 35.5
23:35 1016 30 845 24.95 6 42.8 76 2 35.7
23:40 1016 30 845 24.95 5.9 42.6 76 2 35.6
23:45 1016 30 846 24.98 5.8 42.5 75 1.8 35.2
23:50 1017 30.03 846 24.98 5.8 42.4 76 1.9 35.4
23:55 1016 30 846 24.98 5.7 42.2 77 2 35.5
24:00 1016 30 845 24.95 5.6 42.1 77 1.9 35.4